createdAt,value
2023-05-08T00:01:53.789Z,6.18
2023-05-08T00:04:20.334Z,6.18
2023-05-08T00:06:47.599Z,6.24
2023-05-08T00:09:14.048Z,6.35
2023-05-08T00:11:40.513Z,6.56
2023-05-08T00:14:07.035Z,6.54
2023-05-08T00:16:33.607Z,6.58
2023-05-08T00:19:00.180Z,6.69
2023-05-08T00:21:26.884Z,6.13
2023-05-08T00:23:53.386Z,6.26
2023-05-08T00:26:19.940Z,6.41
2023-05-08T00:28:46.410Z,5.80
2023-05-08T00:31:13.003Z,5.68
2023-05-08T00:33:39.695Z,5.12
2023-05-08T00:36:07.286Z,4.74
2023-05-08T00:38:36.099Z,4.34
2023-05-08T00:41:03.388Z,3.98
2023-05-08T00:43:29.888Z,3.94
2023-05-08T00:46:00.787Z,3.94
2023-05-08T00:48:33.875Z,3.69
2023-05-08T00:51:04.397Z,3.23
2023-05-08T00:53:35.736Z,3.19
2023-05-08T00:56:02.375Z,2.99
2023-05-08T00:58:31.125Z,3.02
2023-05-08T01:00:58.006Z,3.01
2023-05-08T01:03:25.703Z,3.17
2023-05-08T01:05:52.444Z,3.11
2023-05-08T01:08:18.953Z,3.44
2023-05-08T01:11:17.233Z,3.04
2023-05-08T01:13:50.770Z,2.74
2023-05-08T01:16:49.992Z,2.99
2023-05-08T01:19:19.068Z,3.62
2023-05-08T01:21:53.110Z,3.26
2023-05-08T01:25:01.227Z,3.10
2023-05-08T01:28:15.333Z,3.23
2023-05-08T01:31:13.926Z,3.23
2023-05-08T01:33:43.223Z,3.67
2023-05-08T01:36:23.321Z,3.74
2023-05-08T01:39:09.833Z,3.69
2023-05-08T01:41:39.391Z,3.88
2023-05-08T01:44:17.954Z,3.77
2023-05-08T01:46:49.898Z,3.61
2023-05-08T01:49:25.479Z,4.01
2023-05-08T01:52:05.589Z,4.30
2023-05-08T01:54:40.916Z,4.05
2023-05-08T01:57:11.343Z,3.78
2023-05-08T01:59:41.339Z,4.14
2023-05-08T02:02:10.894Z,3.92
2023-05-08T02:04:39.650Z,4.01
2023-05-08T02:07:07.543Z,3.99
2023-05-08T02:09:35.197Z,3.75
2023-05-08T02:12:04.466Z,3.82
2023-05-08T02:14:36.020Z,3.90
2023-05-08T02:17:05.932Z,4.01
2023-05-08T02:19:36.348Z,4.00
2023-05-08T02:22:03.940Z,3.94
2023-05-08T02:24:32.608Z,4.04
2023-05-08T02:27:00.617Z,4.04
2023-05-08T02:29:29.219Z,3.92
2023-05-08T02:31:58.231Z,4.01
2023-05-08T02:34:27.164Z,4.11
2023-05-08T02:36:55.418Z,3.77
2023-05-08T02:39:26.349Z,3.67
2023-05-08T02:41:53.261Z,3.84
2023-05-08T02:44:19.829Z,3.65
2023-05-08T02:46:55.906Z,3.81
2023-05-08T02:49:36.509Z,3.53
2023-05-08T02:52:13.830Z,3.78
2023-05-08T02:55:02.701Z,3.73
2023-05-08T02:57:50.600Z,4.09
2023-05-08T03:00:22.858Z,4.22
2023-05-08T03:02:59.852Z,4.30
2023-05-08T03:05:31.456Z,4.72
2023-05-08T03:08:05.519Z,4.27
2023-05-08T03:10:35.117Z,4.57
2023-05-08T03:13:07.412Z,4.67
2023-05-08T03:15:41.652Z,4.49
2023-05-08T03:18:14.749Z,4.43
2023-05-08T03:20:46.371Z,4.69
2023-05-08T03:23:15.921Z,4.60
2023-05-08T03:25:43.974Z,4.42
2023-05-08T03:28:11.264Z,4.37
2023-05-08T03:30:41.329Z,4.18
2023-05-08T03:33:09.172Z,3.62
2023-05-08T03:35:39.774Z,3.88
2023-05-08T03:38:08.150Z,3.65
2023-05-08T03:40:35.990Z,3.95
2023-05-08T03:43:02.824Z,4.34
2023-05-08T03:45:34.664Z,4.09
2023-05-08T03:48:01.954Z,3.83
2023-05-08T03:50:29.369Z,4.21
2023-05-08T03:52:58.581Z,4.20
2023-05-08T03:55:25.708Z,4.55
2023-05-08T03:58:17.521Z,4.46
2023-05-08T04:01:07.677Z,4.25
2023-05-08T04:03:49.961Z,4.23
2023-05-08T04:06:32.974Z,4.83
2023-05-08T04:09:14.174Z,4.49
2023-05-08T04:11:45.602Z,4.27
2023-05-08T04:14:19.093Z,4.30
2023-05-08T04:16:52.003Z,4.25
2023-05-08T04:19:24.400Z,4.68
2023-05-08T04:21:54.502Z,4.74
2023-05-08T04:24:24.939Z,4.82
2023-05-08T04:26:52.779Z,4.63
2023-05-08T04:29:20.245Z,4.66
2023-05-08T04:31:47.019Z,4.82
2023-05-08T04:34:14.797Z,4.42
2023-05-08T04:36:41.334Z,4.72
2023-05-08T04:39:07.801Z,4.63
2023-05-08T04:41:34.323Z,4.72
2023-05-08T04:44:02.580Z,4.35
2023-05-08T04:46:29.197Z,4.50
2023-05-08T04:48:55.734Z,4.43
2023-05-08T04:51:24.423Z,4.39
2023-05-08T04:53:50.885Z,4.59
2023-05-08T04:56:17.358Z,4.63
2023-05-08T04:58:43.825Z,5.63
2023-05-08T05:01:10.317Z,5.70
2023-05-08T05:03:36.840Z,4.74
2023-05-08T05:06:03.397Z,4.46
2023-05-08T05:08:29.900Z,4.45
2023-05-08T05:10:56.383Z,4.67
2023-05-08T05:13:22.989Z,4.60
2023-05-08T05:15:49.549Z,4.52
2023-05-08T05:18:16.040Z,4.32
2023-05-08T05:20:44.684Z,4.46
2023-05-08T05:23:12.094Z,3.94
2023-05-08T05:25:38.854Z,4.74
2023-05-08T05:28:05.532Z,4.61
2023-05-08T05:30:32.057Z,4.22
2023-05-08T05:32:58.612Z,4.18
2023-05-08T05:35:25.775Z,4.32
2023-05-08T05:37:52.364Z,4.47
2023-05-08T05:40:18.964Z,4.28
2023-05-08T05:42:49.350Z,4.19
2023-05-08T05:45:15.902Z,4.17
2023-05-08T05:47:46.737Z,4.30
2023-05-08T05:50:13.451Z,4.10
2023-05-08T05:52:40.113Z,3.85
2023-05-08T05:55:06.954Z,3.58
2023-05-08T05:57:33.534Z,3.40
2023-05-08T06:00:00.247Z,3.36
2023-05-08T06:02:26.926Z,3.23
2023-05-08T06:04:53.550Z,3.44
2023-05-08T06:07:20.049Z,4.01
2023-05-08T06:09:47.631Z,4.64
2023-05-08T06:12:14.222Z,4.57
2023-05-08T06:14:40.699Z,4.90
2023-05-08T06:17:07.271Z,4.96
2023-05-08T06:19:33.893Z,5.41
2023-05-08T06:22:00.426Z,5.91
2023-05-08T06:24:26.998Z,6.06
2023-05-08T06:26:53.536Z,6.37
2023-05-08T06:29:20.048Z,6.88
2023-05-08T06:31:46.531Z,7.20
2023-05-08T06:34:13.109Z,7.39
2023-05-08T06:36:39.584Z,7.57
2023-05-08T06:39:06.365Z,7.84
2023-05-08T06:41:32.852Z,7.64
2023-05-08T06:43:59.328Z,7.70
2023-05-08T06:46:25.951Z,7.39
2023-05-08T06:48:52.457Z,7.21
2023-05-08T06:51:18.941Z,6.93
2023-05-08T06:53:45.428Z,6.56
2023-05-08T06:56:11.924Z,6.48
2023-05-08T06:58:38.403Z,5.39
2023-05-08T07:01:04.928Z,4.48
2023-05-08T07:03:31.434Z,3.54
2023-05-08T07:05:58.026Z,3.04
2023-05-08T07:08:24.539Z,2.43
2023-05-08T07:10:51.044Z,2.83
2023-05-08T07:13:17.631Z,2.74
2023-05-08T07:15:44.267Z,2.58
2023-05-08T07:18:10.905Z,1.91
2023-05-08T07:20:37.536Z,1.54
2023-05-08T07:23:06.787Z,1.89
2023-05-08T07:25:33.263Z,1.87
2023-05-08T07:28:01.297Z,2.23
2023-05-08T07:30:28.228Z,2.53
2023-05-08T07:32:54.954Z,2.55
2023-05-08T07:35:21.763Z,2.62
2023-05-08T07:37:48.363Z,2.49
2023-05-08T07:40:14.845Z,2.77
2023-05-08T07:42:43.297Z,3.92
2023-05-08T07:45:12.077Z,4.18
2023-05-08T07:47:39.623Z,4.58
2023-05-08T07:50:06.759Z,4.50
2023-05-08T07:52:33.239Z,5.23
2023-05-08T07:54:59.734Z,5.58
2023-05-08T07:57:26.313Z,5.85
2023-05-08T07:59:52.938Z,5.56
2023-05-08T08:02:19.542Z,5.51
2023-05-08T08:04:46.121Z,5.65
2023-05-08T08:07:12.649Z,5.31
2023-05-08T08:09:39.290Z,5.21
2023-05-08T08:12:05.891Z,5.72
2023-05-08T08:14:32.472Z,5.87
2023-05-08T08:16:59.222Z,4.99
2023-05-08T08:19:25.835Z,3.95
2023-05-08T08:21:52.293Z,4.56
2023-05-08T08:24:18.822Z,4.72
2023-05-08T08:26:45.585Z,5.07
2023-05-08T08:29:12.096Z,5.26
2023-05-08T08:31:38.705Z,5.01
2023-05-08T08:34:07.267Z,5.22
2023-05-08T08:36:33.839Z,5.15
2023-05-08T08:39:00.361Z,5.53
2023-05-08T08:41:26.837Z,4.44
2023-05-08T08:43:54.448Z,4.50
2023-05-08T08:46:25.191Z,4.40
2023-05-08T08:48:56.449Z,3.91
2023-05-08T08:51:42.780Z,3.50
2023-05-08T08:54:12.734Z,3.98
2023-05-08T08:56:41.623Z,4.31
2023-05-08T08:59:09.138Z,4.10
2023-05-08T09:01:39.576Z,4.79
2023-05-08T09:04:06.480Z,4.67
2023-05-08T09:06:38.297Z,4.42
2023-05-08T09:09:05.227Z,4.10
2023-05-08T09:11:31.762Z,3.51
2023-05-08T09:14:01.769Z,3.88
2023-05-08T09:16:28.518Z,4.30
2023-05-08T09:18:55.158Z,5.06
2023-05-08T09:21:21.752Z,5.59
2023-05-08T09:23:56.100Z,5.47
2023-05-08T09:26:40.623Z,4.71
2023-05-08T09:29:16.633Z,4.50
2023-05-08T09:31:45.806Z,4.79
2023-05-08T09:34:24.054Z,4.19
2023-05-08T09:36:50.637Z,4.30
2023-05-08T09:39:23.394Z,3.79
2023-05-08T09:42:01.056Z,3.64
2023-05-08T09:44:28.344Z,3.97
2023-05-08T09:47:24.977Z,4.58
2023-05-08T09:50:09.956Z,4.00
2023-05-08T09:52:38.809Z,4.38
2023-05-08T09:55:08.655Z,4.38
2023-05-08T09:57:56.602Z,4.37
2023-05-08T10:00:25.520Z,3.68
2023-05-08T10:03:03.668Z,3.77
2023-05-08T10:05:32.842Z,3.54
2023-05-08T10:08:21.874Z,3.62
2023-05-08T10:10:49.273Z,3.68
2023-05-08T10:13:16.033Z,3.72
2023-05-08T10:15:44.340Z,3.65
2023-05-08T10:18:11.948Z,3.52
2023-05-08T10:20:42.950Z,3.66
2023-05-08T10:23:15.237Z,3.72
2023-05-08T10:25:55.619Z,3.65
2023-05-08T10:28:36.778Z,3.85
2023-05-08T10:31:07.634Z,3.91
2023-05-08T10:33:35.237Z,4.59
2023-05-08T10:36:01.782Z,4.29
2023-05-08T10:38:30.356Z,3.81
2023-05-08T10:41:00.622Z,4.14
2023-05-08T10:43:29.522Z,3.79
2023-05-08T10:45:58.730Z,3.72
2023-05-08T10:48:43.516Z,3.15
2023-05-08T10:51:39.369Z,3.54
2023-05-08T10:54:15.156Z,3.82
2023-05-08T10:56:41.672Z,3.99
2023-05-08T10:59:20.767Z,3.54
2023-05-08T11:01:48.448Z,3.02
2023-05-08T11:04:23.175Z,3.07
2023-05-08T11:06:50.785Z,3.09
2023-05-08T11:09:29.022Z,3.11
2023-05-08T11:12:20.173Z,2.89
2023-05-08T11:14:57.497Z,2.99
2023-05-08T11:17:25.264Z,2.81
2023-05-08T11:19:57.215Z,3.06
2023-05-08T11:22:26.746Z,2.90
2023-05-08T11:25:09.354Z,2.85
2023-05-08T11:27:50.860Z,3.33
2023-05-08T11:30:35.080Z,3.11
2023-05-08T11:33:04.806Z,3.38
2023-05-08T11:35:58.666Z,3.39
2023-05-08T11:38:34.140Z,3.20
2023-05-08T11:41:20.684Z,3.68
2023-05-08T11:44:02.465Z,2.87
2023-05-08T11:46:41.628Z,2.96
2023-05-08T11:49:16.326Z,3.00
2023-05-08T11:51:46.939Z,2.65
2023-05-08T11:54:16.570Z,2.40
2023-05-08T11:56:47.622Z,2.28
2023-05-08T11:59:15.914Z,2.25
2023-05-08T12:01:46.330Z,2.51
2023-05-08T12:04:15.620Z,2.47
2023-05-08T12:06:42.627Z,2.15
2023-05-08T12:09:15.093Z,2.34
2023-05-08T12:11:43.428Z,2.86
2023-05-08T12:14:11.445Z,2.15
2023-05-08T12:16:39.028Z,1.84
2023-05-08T12:19:13.220Z,2.20
2023-05-08T12:21:46.519Z,1.88
2023-05-08T12:24:13.351Z,1.70
2023-05-08T12:26:39.913Z,1.60
2023-05-08T12:29:07.024Z,1.77
2023-05-08T12:31:35.672Z,1.49
2023-05-08T12:34:06.327Z,1.68
2023-05-08T12:36:36.771Z,1.70
2023-05-08T12:39:17.444Z,2.04
2023-05-08T12:41:53.051Z,2.17
2023-05-08T12:44:25.058Z,1.79
2023-05-08T12:46:56.176Z,1.87
2023-05-08T12:49:27.880Z,1.93
2023-05-08T12:52:02.525Z,1.58
2023-05-08T12:54:48.695Z,1.70
2023-05-08T12:57:17.841Z,1.78
2023-05-08T12:59:46.723Z,2.00
2023-05-08T13:02:22.037Z,1.68
2023-05-08T13:04:54.761Z,1.75
2023-05-08T13:07:21.922Z,1.79
2023-05-08T13:09:59.008Z,1.80
2023-05-08T13:12:25.578Z,2.30
2023-05-08T13:14:52.143Z,2.41
2023-05-08T13:17:19.157Z,2.63
2023-05-08T13:19:45.695Z,2.89
2023-05-08T13:22:12.289Z,2.93
2023-05-08T13:24:38.789Z,2.97
2023-05-08T13:27:05.337Z,2.71
2023-05-08T13:29:31.962Z,2.86
2023-05-08T13:31:58.597Z,2.51
2023-05-08T13:34:25.186Z,2.06
2023-05-08T13:36:51.830Z,2.17
2023-05-08T13:39:18.517Z,1.97
2023-05-08T13:41:45.632Z,2.12
2023-05-08T13:44:12.204Z,2.09
2023-05-08T13:46:38.701Z,2.21
2023-05-08T13:49:05.246Z,2.15
2023-05-08T13:51:31.819Z,1.80
2023-05-08T13:53:58.319Z,1.46
2023-05-08T13:56:24.942Z,1.27
2023-05-08T13:58:52.554Z,1.20
2023-05-08T14:01:26.260Z,1.22
2023-05-08T14:03:54.934Z,1.54
2023-05-08T14:06:21.987Z,1.41
2023-05-08T14:08:51.507Z,1.35
2023-05-08T14:11:19.420Z,1.07
2023-05-08T14:13:45.904Z,1.03
2023-05-08T14:16:14.392Z,1.13
2023-05-08T14:18:41.076Z,1.17
2023-05-08T14:21:07.572Z,1.38
2023-05-08T14:23:36.277Z,1.05
2023-05-08T14:26:02.925Z,1.13
2023-05-08T14:28:29.441Z,1.33
2023-05-08T14:30:56.176Z,1.35
2023-05-08T14:33:22.927Z,1.22
2023-05-08T14:35:49.508Z,1.27
2023-05-08T14:38:16.298Z,1.03
2023-05-08T14:40:42.792Z,1.20
2023-05-08T14:43:09.327Z,1.28
2023-05-08T14:45:35.943Z,1.14
2023-05-08T14:48:02.578Z,0.99
2023-05-08T14:50:29.460Z,1.04
2023-05-08T14:52:56.110Z,0.91
2023-05-08T14:55:23.056Z,0.96
2023-05-08T14:57:50.320Z,0.92
2023-05-08T15:00:18.091Z,0.89
2023-05-08T15:02:45.097Z,1.19
2023-05-08T15:05:19.189Z,0.95
2023-05-08T15:07:46.997Z,1.35
2023-05-08T15:10:13.748Z,1.73
2023-05-08T15:12:40.654Z,1.80
2023-05-08T15:15:07.827Z,1.74
2023-05-08T15:17:34.741Z,1.57
2023-05-08T15:20:01.366Z,1.58
2023-05-08T15:22:28.409Z,1.43
2023-05-08T15:24:55.121Z,1.63
2023-05-08T15:27:21.847Z,1.66
2023-05-08T15:29:48.724Z,1.56
2023-05-08T15:32:15.427Z,1.69
2023-05-08T15:34:42.128Z,1.74
2023-05-08T15:37:08.675Z,1.82
2023-05-08T15:39:36.102Z,1.68
2023-05-08T15:42:02.913Z,1.60
2023-05-08T15:44:42.140Z,1.38
2023-05-08T15:47:16.063Z,1.72
2023-05-08T15:49:42.601Z,1.65
2023-05-08T15:52:09.280Z,2.07
2023-05-08T15:54:35.793Z,2.12
2023-05-08T15:57:02.290Z,2.00
2023-05-08T15:59:28.805Z,1.86
2023-05-08T16:01:55.431Z,1.71
2023-05-08T16:04:24.955Z,2.04
2023-05-08T16:06:51.531Z,1.87
2023-05-08T16:09:18.058Z,1.65
2023-05-08T16:11:47.077Z,1.70
2023-05-08T16:14:14.230Z,1.54
2023-05-08T16:16:40.725Z,1.51
2023-05-08T16:19:07.206Z,1.54
2023-05-08T16:21:33.718Z,1.56
2023-05-08T16:24:00.234Z,1.54
2023-05-08T16:26:26.742Z,1.67
2023-05-08T16:28:53.326Z,1.87
2023-05-08T16:31:19.926Z,2.10
2023-05-08T16:33:46.468Z,2.21
2023-05-08T16:36:13.088Z,3.28
2023-05-08T16:38:39.627Z,2.14
2023-05-08T16:41:07.442Z,1.77
2023-05-08T16:43:33.944Z,1.95
2023-05-08T16:46:00.537Z,2.61
2023-05-08T16:48:27.176Z,2.72
2023-05-08T16:50:53.706Z,2.28
2023-05-08T16:53:20.197Z,2.21
2023-05-08T16:55:46.713Z,2.21
2023-05-08T16:58:13.249Z,3.84
2023-05-08T17:00:39.743Z,5.04
2023-05-08T17:03:06.397Z,4.59
2023-05-08T17:05:33.050Z,3.94
2023-05-08T17:07:59.556Z,3.49
2023-05-08T17:10:26.126Z,2.90
2023-05-08T17:12:54.125Z,2.51
2023-05-08T17:15:20.905Z,2.28
2023-05-08T17:17:47.597Z,2.64
2023-05-08T17:20:14.685Z,1.94
2023-05-08T17:22:42.007Z,2.25
2023-05-08T17:25:08.676Z,3.28
2023-05-08T17:27:35.328Z,3.22
2023-05-08T17:30:03.244Z,3.70
2023-05-08T17:32:29.802Z,2.16
2023-05-08T17:34:56.327Z,3.02
2023-05-08T17:37:22.938Z,3.02
2023-05-08T17:39:49.524Z,1.62
2023-05-08T17:42:16.021Z,1.58
2023-05-08T17:44:42.515Z,1.95
2023-05-08T17:47:09.029Z,1.50
2023-05-08T17:49:35.583Z,1.46
2023-05-08T17:52:02.078Z,1.72
2023-05-08T17:54:28.604Z,1.82
2023-05-08T17:56:55.095Z,2.34
2023-05-08T17:59:21.607Z,2.54
2023-05-08T18:01:48.176Z,2.34
2023-05-08T18:04:14.676Z,2.23
2023-05-08T18:06:42.646Z,2.95
2023-05-08T18:09:09.179Z,2.25
2023-05-08T18:11:35.833Z,1.69
2023-05-08T18:14:02.326Z,1.63
2023-05-08T18:16:29.050Z,2.15
2023-05-08T18:18:55.737Z,2.06
2023-05-08T18:21:22.277Z,1.73
2023-05-08T18:23:50.131Z,2.29
2023-05-08T18:26:17.176Z,2.30
2023-05-08T18:28:43.922Z,1.97
2023-05-08T18:31:10.904Z,1.74
2023-05-08T18:33:37.447Z,1.77
2023-05-08T18:36:04.111Z,2.05
2023-05-08T18:38:32.588Z,2.02
2023-05-08T18:41:04.486Z,2.23
2023-05-08T18:43:30.970Z,2.48
2023-05-08T18:45:57.590Z,3.48
2023-05-08T18:48:25.794Z,3.10
2023-05-08T18:50:52.315Z,3.04
2023-05-08T18:53:19.448Z,2.64
2023-05-08T18:55:45.912Z,2.87
2023-05-08T18:58:12.605Z,2.72
2023-05-08T19:00:39.260Z,2.76
2023-05-08T19:03:05.873Z,2.46
2023-05-08T19:05:32.537Z,2.17
2023-05-08T19:07:59.102Z,2.09
2023-05-08T19:10:25.567Z,1.88
2023-05-08T19:12:52.101Z,1.93
2023-05-08T19:15:18.723Z,2.73
2023-05-08T19:17:45.335Z,4.46
2023-05-08T19:20:12.771Z,3.34
2023-05-08T19:22:39.457Z,2.63
2023-05-08T19:25:06.314Z,2.58
2023-05-08T19:27:32.807Z,2.51
2023-05-08T19:29:59.303Z,2.36
2023-05-08T19:32:25.973Z,2.36
2023-05-08T19:34:52.452Z,2.08
2023-05-08T19:37:19.064Z,1.87
2023-05-08T19:39:45.537Z,2.05
2023-05-08T19:42:12.016Z,2.35
2023-05-08T19:44:38.695Z,2.07
2023-05-08T19:47:05.237Z,2.04
2023-05-08T19:49:31.730Z,1.85
2023-05-08T19:51:58.234Z,2.17
2023-05-08T19:54:24.946Z,3.11
2023-05-08T19:56:51.438Z,3.41
2023-05-08T19:59:17.942Z,2.34
2023-05-08T20:01:44.494Z,2.25
2023-05-08T20:04:11.083Z,2.36
2023-05-08T20:06:37.681Z,2.38
2023-05-08T20:09:04.454Z,2.35
2023-05-08T20:11:31.054Z,2.37
2023-05-08T20:13:57.686Z,2.01
2023-05-08T20:16:24.223Z,1.91
2023-05-08T20:18:50.757Z,1.97
2023-05-08T20:21:17.362Z,1.70
2023-05-08T20:23:44.017Z,1.84
2023-05-08T20:26:10.613Z,1.77
2023-05-08T20:28:37.436Z,1.92
2023-05-08T20:31:04.140Z,1.74
2023-05-08T20:33:30.651Z,1.76
2023-05-08T20:35:57.245Z,2.16
2023-05-08T20:38:23.787Z,2.37
2023-05-08T20:40:50.872Z,1.84
2023-05-08T20:43:17.363Z,1.99
2023-05-08T20:45:43.905Z,2.18
2023-05-08T20:48:10.510Z,2.58
2023-05-08T20:50:36.999Z,1.90
2023-05-08T20:53:03.452Z,1.37
2023-05-08T20:55:29.958Z,2.41
2023-05-08T20:57:56.440Z,1.97
2023-05-08T21:00:22.902Z,1.62
2023-05-08T21:02:49.389Z,1.94
2023-05-08T21:05:16.178Z,1.71
2023-05-08T21:07:42.826Z,1.47
2023-05-08T21:10:09.843Z,1.36
2023-05-08T21:12:36.338Z,1.47
2023-05-08T21:15:02.846Z,1.49
2023-05-08T21:17:29.369Z,1.21
2023-05-08T21:19:55.875Z,1.32
2023-05-08T21:22:22.352Z,1.41
2023-05-08T21:24:48.863Z,1.40
2023-05-08T21:27:15.315Z,1.49
2023-05-08T21:29:41.817Z,1.48
2023-05-08T21:32:09.948Z,1.34
2023-05-08T21:34:36.870Z,1.45
2023-05-08T21:37:03.433Z,1.50
2023-05-08T21:39:29.934Z,1.54
2023-05-08T21:41:56.423Z,1.43
2023-05-08T21:44:22.922Z,1.60
2023-05-08T21:46:49.452Z,1.62
2023-05-08T21:49:15.983Z,1.58
2023-05-08T21:51:42.452Z,1.43
2023-05-08T21:54:08.937Z,1.58
2023-05-08T21:56:35.468Z,1.52
2023-05-08T21:59:01.962Z,1.63
2023-05-08T22:01:28.535Z,1.68
2023-05-08T22:03:55.246Z,1.73
2023-05-08T22:06:21.906Z,1.59
2023-05-08T22:08:48.396Z,1.62
2023-05-08T22:11:14.928Z,1.66
2023-05-08T22:13:41.443Z,1.73
2023-05-08T22:16:07.988Z,1.80
2023-05-08T22:18:34.538Z,1.76
2023-05-08T22:21:01.013Z,1.88
2023-05-08T22:23:27.486Z,1.80
2023-05-08T22:25:53.953Z,1.63
2023-05-08T22:28:20.449Z,1.79
2023-05-08T22:30:46.946Z,1.84
2023-05-08T22:33:13.507Z,1.90
2023-05-08T22:35:40.018Z,2.03
2023-05-08T22:38:06.751Z,1.92
2023-05-08T22:40:33.642Z,1.89
2023-05-08T22:43:00.755Z,1.88
2023-05-08T22:45:27.740Z,2.04
2023-05-08T22:47:55.095Z,2.09
2023-05-08T22:50:21.618Z,2.09
2023-05-08T22:52:48.225Z,1.93
2023-05-08T22:55:14.979Z,1.88
2023-05-08T22:57:41.681Z,1.94
2023-05-08T23:00:08.732Z,2.03
2023-05-08T23:02:35.596Z,1.94
2023-05-08T23:05:02.407Z,1.93
2023-05-08T23:07:29.603Z,1.89
2023-05-08T23:09:56.322Z,1.79
2023-05-08T23:12:23.061Z,1.78
2023-05-08T23:14:49.639Z,1.66
2023-05-08T23:17:16.158Z,1.74
2023-05-08T23:19:42.688Z,1.74
2023-05-08T23:22:09.826Z,1.72
2023-05-08T23:24:36.744Z,1.66
2023-05-08T23:27:03.298Z,1.72
2023-05-08T23:29:29.838Z,1.78
2023-05-08T23:31:56.392Z,1.79
2023-05-08T23:34:22.973Z,1.94
2023-05-08T23:36:49.461Z,2.17
2023-05-08T23:39:15.992Z,2.18
2023-05-08T23:41:42.510Z,1.94
2023-05-08T23:44:09.007Z,1.89
2023-05-08T23:46:35.602Z,1.88
2023-05-08T23:49:02.123Z,1.84
2023-05-08T23:51:28.621Z,1.70
2023-05-08T23:53:55.099Z,1.94
2023-05-08T23:56:21.577Z,1.91
2023-05-08T23:58:48.151Z,1.72
